Terminal Aerodrome Forecast
Issued by NWS Buffalo, NY

Home | Current Version | Previous Version | Text Only | Print | Product List | Glossary On
Versions: 1 2 3 4 5 6 7 8 9 10 11 12 13 14 15 16 17 18 19 20 21 22 23
000
FTUS41 KBUF 292108 AAA
TAFROC
TAF AMD
KROC 292108Z 2921/3018 VRB05KT P6SM SCT050 BKN250
     FM300300 21007KT P6SM SCT090
     FM300700 23010KT P6SM VCSH BKN050
     FM301200 25009KT P6SM BKN200
     FM301600 26013G20KT P6SM SCT250=

USA.gov is the U.S. government's official web portal to all federal, state and local government web resources and services.